Time;durP1;ratioP1;P1;durP2;ratioP2;P2;SDS_P1;SDS_P2;PMS_P1;PMS_P2;Temp;Humidity;BMP_temperature;BMP_pressure;BME280_temperature;BME280_humidity;BME280_pressure;Samples;Min_cycle;Max_cycle;Signal;HPM_P1;HPM_P2
2023/01/14 00:02:01;;;;;;;122.28;60.90;;;;;;;7.61;78.80;99242.38;4872356;29;20045;-61
2023/01/14 00:04:36;;;;;;;121.13;61.38;;;;;;;7.61;79.53;99239.72;4865890;29;20057;-61
2023/01/14 00:07:31;;;;;;;123.82;60.83;;;;;;;7.79;78.97;99245.69;4860503;29;20144;-61
2023/01/14 00:10:07;;;;;;;118.72;59.67;;;;;;;7.81;79.44;99235.81;4871948;29;20390;-60
2023/01/14 00:13:03;;;;;;;122.40;58.22;;;;;;;7.70;78.88;99251.91;4872534;29;20064;-60
2023/01/14 00:15:38;;;;;;;119.95;61.60;;;;;;;7.61;78.70;99252.91;4870177;29;20045;-60
2023/01/14 00:18:34;;;;;;;114.07;59.45;;;;;;;7.72;77.93;99255.22;4857383;29;20835;-60
2023/01/14 00:21:14;;;;;;;111.05;56.90;;;;;;;7.64;78.02;99256.03;4871514;29;20144;-60
2023/01/14 00:24:04;;;;;;;115.07;55.17;;;;;;;7.63;77.82;99259.66;4855275;29;20140;-61
2023/01/14 00:26:47;;;;;;;97.05;52.30;;;;;;;7.61;77.58;99252.91;4855062;29;20148;-60
2023/01/14 00:29:36;;;;;;;109.72;48.60;;;;;;;7.49;76.51;99255.00;4854912;29;20053;-60
2023/01/14 00:32:18;;;;;;;91.05;47.00;;;;;;;7.37;76.02;99253.63;4851651;29;20161;-60
2023/01/14 00:35:14;;;;;;;93.47;45.42;;;;;;;7.43;75.91;99252.19;4838216;29;20757;-59
2023/01/14 00:38:05;;;;;;;93.47;43.78;;;;;;;7.27;75.07;99254.72;4870570;29;20131;-59
2023/01/14 00:41:09;;;;;;;88.00;44.80;;;;;;;7.28;74.63;99256.38;4856510;29;20133;-60
2023/01/14 00:44:01;;;;;;;98.00;45.30;;;;;;;7.21;73.81;99272.00;4848293;29;20059;-58
2023/01/14 00:46:45;;;;;;;88.03;44.85;;;;;;;7.07;73.53;99267.31;4837436;29;20060;-59
2023/01/14 00:49:34;;;;;;;84.60;44.25;;;;;;;7.20;72.78;99270.34;4859057;29;20064;-58
2023/01/14 00:52:16;;;;;;;85.60;46.08;;;;;;;7.01;72.04;99274.03;4856020;29;20049;-59
2023/01/14 00:55:05;;;;;;;80.65;42.33;;;;;;;6.95;71.30;99272.00;4855872;29;20483;-58
2023/01/14 00:57:54;;;;;;;81.32;41.42;;;;;;;6.92;72.03;99274.97;4856462;29;20133;-60
2023/01/14 01:00:36;;;;;;;82.00;39.55;;;;;;;6.95;71.84;99285.16;4857590;29;20091;-58
2023/01/14 01:03:26;;;;;;;78.32;38.35;;;;;;;6.84;71.46;99288.06;4855173;29;20068;-59
2023/01/14 01:06:08;;;;;;;69.63;37.38;;;;;;;6.77;70.75;99292.31;4855213;29;20077;-57
2023/01/14 01:09:00;;;;;;;83.13;38.47;;;;;;;6.78;71.02;99286.88;4864619;29;20060;-58
2023/01/14 01:11:45;;;;;;;79.22;38.65;;;;;;;6.83;70.95;99296.13;4837512;29;20153;-60
2023/01/14 01:14:34;;;;;;;74.43;37.20;;;;;;;6.75;70.01;99299.53;4857466;29;20080;-61
2023/01/14 01:17:23;;;;;;;79.05;40.05;;;;;;;6.84;70.24;99306.50;4858242;29;20065;-61
2023/01/14 01:20:08;;;;;;;74.95;37.72;;;;;;;6.61;72.36;99314.06;4870739;29;20155;-60
2023/01/14 01:22:57;;;;;;;84.03;39.53;;;;;;;6.28;72.34;99318.19;4873269;29;20048;-60
2023/01/14 01:25:46;;;;;;;79.88;38.38;;;;;;;6.23;73.42;99317.00;4855577;29;20045;-59
2023/01/14 01:28:35;;;;;;;78.25;39.38;;;;;;;6.26;73.31;99316.69;4855436;29;20053;-60
2023/01/14 01:31:20;;;;;;;75.70;38.70;;;;;;;6.16;73.36;99314.13;4855439;29;20068;-59
2023/01/14 01:34:09;;;;;;;83.47;41.35;;;;;;;6.64;72.86;99313.75;4857887;29;20052;-61
2023/01/14 01:36:52;;;;;;;78.30;40.63;;;;;;;6.60;73.05;99311.56;4840344;29;20065;-59
2023/01/14 01:39:47;;;;;;;74.15;38.72;;;;;;;6.54;71.71;99322.72;4835256;29;20126;-61
2023/01/14 01:42:54;;;;;;;76.35;39.47;;;;;;;6.42;71.21;99311.56;4823408;29;20569;-59
2023/01/14 01:46:00;;;;;;;77.03;39.38;;;;;;;6.44;70.58;99320.16;4841034;29;20049;-61
2023/01/14 01:48:49;;;;;;;79.50;39.35;;;;;;;6.41;70.04;99317.00;4839115;29;20049;-60
2023/01/14 01:51:44;;;;;;;74.40;38.80;;;;;;;6.51;69.85;99320.38;4841395;29;20049;-59
2023/01/14 01:54:39;;;;;;;73.30;40.42;;;;;;;6.47;68.91;99326.91;4844443;29;20065;-60
2023/01/14 01:57:23;;;;;;;74.75;41.10;;;;;;;6.63;68.68;99324.44;4836262;29;20053;-60
2023/01/14 02:00:12;;;;;;;77.55;40.15;;;;;;;6.72;68.15;99334.06;4817889;29;20769;-59
2023/01/14 02:02:58;;;;;;;78.45;40.45;;;;;;;6.44;67.54;99340.38;4836719;29;20149;-59
2023/01/14 02:05:49;;;;;;;76.45;39.53;;;;;;;6.37;67.96;99342.78;4843116;29;20053;-59
2023/01/14 02:08:40;;;;;;;78.30;41.95;;;;;;;6.54;69.07;99351.66;4850566;29;20064;-59
2023/01/14 02:11:50;;;;;;;80.47;42.35;;;;;;;6.52;69.65;99346.53;4850678;29;20046;-58
2023/01/14 02:14:48;;;;;;;79.25;42.30;;;;;;;6.47;69.19;99358.47;4817231;29;20122;-59
2023/01/14 02:18:10;;;;;;;88.25;41.78;;;;;;;6.57;69.06;99367.13;4825734;29;20057;-59
2023/01/14 02:21:25;;;;;;;80.32;43.22;;;;;;;6.92;68.21;99363.66;4853940;29;20049;-60
2023/01/14 02:24:50;;;;;;;78.88;41.35;;;;;;;6.65;69.34;99362.78;4853308;29;20097;-59
2023/01/14 02:27:58;;;;;;;85.78;43.55;;;;;;;6.46;69.46;99367.38;4845930;29;20061;-59
2023/01/14 02:31:00;;;;;;;79.97;44.58;;;;;;;6.77;68.69;99366.00;4828333;29;20058;-59
2023/01/14 02:33:56;;;;;;;84.88;44.08;;;;;;;6.64;67.36;99376.91;4846753;29;20564;-60
2023/01/14 02:37:03;;;;;;;82.07;43.65;;;;;;;6.69;69.17;99386.97;4820311;29;20038;-58
2023/01/14 02:40:27;;;;;;;82.88;43.20;;;;;;;6.76;68.67;99391.50;4834986;29;20050;-59
2023/01/14 02:46:47;;;;;;;83.72;42.55;;;;;;;6.92;65.56;99377.63;4858598;29;20051;-59
2023/01/14 02:49:33;;;;;;;87.10;42.28;;;;;;;7.15;65.42;99378.81;4839415;29;20110;-59
2023/01/14 02:52:22;;;;;;;95.03;42.50;;;;;;;7.41;66.07;99385.88;4851253;29;20057;-60
2023/01/14 02:55:06;;;;;;;84.32;43.45;;;;;;;7.47;66.27;99374.72;4856564;29;20553;-58
2023/01/14 02:58:00;;;;;;;75.20;42.28;;;;;;;7.52;65.70;99383.81;4862192;29;20057;-57
2023/01/14 03:01:03;;;;;;;81.63;40.85;;;;;;;7.49;64.74;99393.84;4859873;29;20056;-58
2023/01/14 03:04:06;;;;;;;75.00;40.85;;;;;;;7.76;63.89;99403.38;4852248;29;20137;-59
2023/01/14 03:07:08;;;;;;;74.03;40.13;;;;;;;7.86;63.47;99402.28;4837930;29;20144;-59
2023/01/14 03:10:10;;;;;;;;;;;;;;;7.91;61.01;99402.63;4853341;29;20080;-59
2023/01/14 03:13:13;;;;;;;75.55;39.80;;;;;;;7.95;60.72;99406.59;4871483;29;19927;-60
2023/01/14 03:16:27;;;;;;;82.80;40.67;;;;;;;7.92;58.37;99411.38;4846392;29;20112;-59
2023/01/14 03:19:30;;;;;;;84.32;41.72;;;;;;;8.11;58.93;99419.84;4837078;29;20053;-58
2023/01/14 03:22:20;;;;;;;96.50;44.23;;;;;;;8.26;57.78;99419.25;4851820;29;20415;-60
2023/01/14 03:25:12;;;;;;;73.10;40.55;;;;;;;8.37;57.93;99411.06;4834218;29;20060;-61
2023/01/14 03:27:59;;;;;;;81.80;41.03;;;;;;;8.77;56.48;99421.69;4854229;29;20049;-59
2023/01/14 03:30:54;;;;;;;68.83;36.77;;;;;;;9.57;51.39;99417.38;4855362;29;20056;-61
2023/01/14 03:34:00;;;;;;;67.88;37.65;;;;;;;10.48;50.13;99422.19;4852403;29;20284;-60
2023/01/14 03:36:51;;;;;;;74.88;38.22;;;;;;;10.92;50.56;99430.38;4844957;29;20048;-61
2023/01/14 03:39:34;;;;;;;76.50;38.20;;;;;;;11.47;47.45;99435.34;4856105;29;20768;-60
2023/01/14 03:42:29;;;;;;;73.75;36.67;;;;;;;11.89;47.89;99427.69;4855098;29;20880;-61
2023/01/14 03:45:38;;;;;;;62.75;36.08;;;;;;;12.52;46.67;99427.03;4818997;29;20050;-57
2023/01/14 03:48:27;;;;;;;69.20;38.65;;;;;;;13.24;43.64;99423.47;4834933;29;20053;-60
2023/01/14 03:51:20;;;;;;;69.28;34.83;;;;;;;13.79;42.95;99436.00;4843111;29;20152;-61
2023/01/14 03:54:45;;;;;;;67.18;34.67;;;;;;;13.96;42.11;99432.00;4858158;29;20065;-61
2023/01/14 03:57:34;;;;;;;63.75;33.40;;;;;;;14.27;40.51;99437.69;4856147;29;20144;-60
2023/01/14 04:00:42;;;;;;;58.95;34.08;;;;;;;14.95;43.32;99445.75;4834534;29;20058;-61
2023/01/14 04:03:32;;;;;;;58.38;30.35;;;;;;;15.37;37.48;99444.56;4831870;29;20374;-61
2023/01/14 04:06:21;;;;;;;52.55;30.83;;;;;;;15.95;35.82;99448.25;4866497;29;20486;-60
2023/01/14 04:09:05;;;;;;;60.63;28.85;;;;;;;15.94;39.57;99460.78;4858562;29;20058;-59
2023/01/14 04:11:54;;;;;;;45.60;24.50;;;;;;;16.11;33.73;99463.81;4852852;29;20144;-61
2023/01/14 04:17:43;;;;;;;39.17;23.10;;;;;;;16.49;33.05;99463.91;4856088;29;20053;-61
2023/01/14 04:20:25;;;;;;;36.25;21.70;;;;;;;16.68;32.41;99472.94;4852471;29;20132;-60
2023/01/14 04:23:14;;;;;;;37.80;19.90;;;;;;;16.74;30.15;99475.56;4856922;29;20105;-59
2023/01/14 04:25:58;;;;;;;29.58;17.90;;;;;;;16.99;30.78;99467.63;4870909;29;20059;-60
2023/01/14 04:28:47;;;;;;;31.50;16.63;;;;;;;18.03;26.57;99477.72;4871599;29;20727;-60
2023/01/14 04:31:29;;;;;;;30.77;15.98;;;;;;;18.26;27.25;99478.72;4863801;29;20049;-61
2023/01/14 04:34:18;;;;;;;35.38;17.83;;;;;;;17.61;29.82;99479.38;4856783;29;20068;-60
2023/01/14 04:37:01;;;;;;;35.05;18.95;;;;;;;17.49;28.51;99479.19;4856381;29;20073;-60
2023/01/14 04:39:56;;;;;;;26.45;15.68;;;;;;;18.43;27.56;99484.31;4853850;29;20057;-61
2023/01/14 04:42:31;;;;;;;32.95;15.38;;;;;;;18.59;23.91;99477.53;4854498;29;20061;-61
2023/01/14 04:45:20;;;;;;;30.90;15.00;;;;;;;18.50;24.41;99481.56;4856225;29;20148;-60
2023/01/14 04:48:02;;;;;;;32.25;13.70;;;;;;;18.11;24.90;99480.13;4820099;29;20046;-60
2023/01/14 04:50:51;;;;;;;26.85;14.98;;;;;;;19.15;23.76;99486.09;4836059;29;20589;-63
2023/01/14 04:53:40;;;;;;;28.17;14.20;;;;;;;18.74;25.49;99499.44;4836663;29;20435;-64
2023/01/14 04:56:29;;;;;;;26.60;14.95;;;;;;;18.46;27.24;99499.13;4839172;29;20050;-65
2023/01/14 04:59:11;;;;;;;34.20;14.20;;;;;;;18.38;24.58;99501.06;4837922;29;20054;-64
2023/01/14 05:02:00;;;;;;;37.88;18.00;;;;;;;17.74;24.56;99504.19;4844426;29;20126;-64
2023/01/14 05:04:49;;;;;;;30.30;16.65;;;;;;;17.57;26.48;99505.72;4841441;29;20060;-64
2023/01/14 05:07:31;;;;;;;31.00;17.77;;;;;;;17.21;23.69;99509.09;4841941;29;20054;-63
2023/01/14 05:10:20;;;;;;;36.92;19.15;;;;;;;16.79;26.00;99512.38;4834532;29;20816;-63
2023/01/14 05:13:02;;;;;;;36.03;20.67;;;;;;;16.41;25.81;99517.63;4836756;29;20064;-63
2023/01/14 05:15:52;;;;;;;36.17;19.48;;;;;;;16.23;27.80;99518.28;4832827;29;20270;-65
2023/01/14 05:18:34;;;;;;;36.08;20.02;;;;;;;16.46;28.61;99523.97;4838993;29;20369;-63
2023/01/14 05:21:24;;;;;;;35.40;21.17;;;;;;;16.26;28.69;99522.38;4836424;29;20134;-63
2023/01/14 05:24:06;;;;;;;48.90;25.45;;;;;;;16.15;29.37;99521.97;4841279;29;20670;-63
2023/01/14 05:26:56;;;;;;;51.38;24.52;;;;;;;16.41;30.17;99514.97;4849284;29;20054;-62
2023/01/14 05:29:38;;;;;;;47.33;24.95;;;;;;;16.10;28.27;99515.66;4842940;29;20050;-63
2023/01/14 05:32:27;;;;;;;39.17;22.73;;;;;;;16.05;29.39;99515.44;4835657;29;20053;-61
2023/01/14 05:35:09;;;;;;;44.30;23.73;;;;;;;15.95;29.90;99521.19;4835969;29;20157;-62
2023/01/14 05:37:58;;;;;;;41.63;23.88;;;;;;;16.13;30.75;99508.03;4846157;29;20061;-61
2023/01/14 05:40:42;;;;;;;44.15;26.02;;;;;;;16.47;30.51;99506.91;4859019;29;20782;-62
2023/01/14 05:46:31;;;;;;;50.53;25.42;;;;;;;16.87;30.91;99509.44;4848642;29;20649;-60
2023/01/14 05:49:20;;;;;;;50.25;22.73;;;;;;;16.72;31.69;99507.06;4859823;29;20132;-60
2023/01/14 05:52:02;;;;;;;48.70;24.52;;;;;;;17.48;38.69;99497.13;4864757;29;20056;-60
2023/01/14 05:54:51;;;;;;;27.40;13.45;;;;;;;17.11;31.65;99499.88;4849131;29;20056;-60
2023/01/14 05:57:33;;;;;;;21.17;9.65;;;;;;;16.49;29.75;99502.19;4854677;29;20117;-60
2023/01/14 06:06:38;;;;;;;12.32;7.28;;;;;;;16.80;25.13;99495.28;4835848;29;20053;-63
2023/01/14 06:09:27;;;;;;;21.20;8.00;;;;;;;16.92;26.88;99490.91;4852120;29;20045;-62
2023/01/14 06:12:09;;;;;;;13.95;7.70;;;;;;;17.00;24.90;99483.44;4869596;29;20049;-63
2023/01/14 06:15:00;;;;;;;17.98;7.65;;;;;;;17.36;26.84;99476.63;4861079;29;20064;-61
2023/01/14 06:17:57;;;;;;;19.63;7.63;;;;;;;16.92;27.63;99477.53;4854962;29;20054;-60
2023/01/14 06:20:46;;;;;;;15.25;6.47;;;;;;;17.34;25.89;99476.03;4871177;29;20073;-63
2023/01/14 06:23:28;;;;;;;18.00;7.82;;;;;;;17.47;27.64;99473.25;4869102;29;20865;-61
2023/01/14 06:26:19;;;;;;;12.20;7.30;;;;;;;17.20;25.93;99469.13;4822574;29;20068;-61
2023/01/14 06:29:07;;;;;;;13.10;6.22;;;;;;;17.25;27.55;99464.78;4851258;29;20053;-62
2023/01/14 06:32:02;;;;;;;15.88;7.22;;;;;;;17.31;28.41;99460.38;4865562;29;20140;-61
2023/01/14 06:34:37;;;;;;;18.15;7.50;;;;;;;17.40;28.83;99454.56;4845621;29;20075;-61
2023/01/14 06:37:32;;;;;;;13.15;7.32;;;;;;;17.09;25.40;99449.22;4854209;29;20057;-62
2023/01/14 06:40:14;;;;;;;17.98;7.50;;;;;;;17.25;27.52;99448.72;4859344;29;20045;-61
2023/01/14 06:43:03;;;;;;;20.83;9.23;;;;;;;17.51;26.94;99440.47;4854693;29;20063;-61
2023/01/14 06:45:53;;;;;;;22.83;10.65;;;;;;;17.61;26.48;99445.38;4862103;29;20056;-62
2023/01/14 06:48:36;;;;;;;20.35;9.95;;;;;;;17.00;25.79;99442.47;4858596;29;20164;-60
2023/01/14 06:51:32;;;;;;;25.90;9.00;;;;;;;17.16;28.18;99428.59;4872793;29;20056;-63
2023/01/14 06:54:08;;;;;;;24.45;9.70;;;;;;;17.29;27.21;99425.81;4868252;29;20045;-63
2023/01/14 06:57:03;;;;;;;35.15;15.32;;;;;;;17.22;26.64;99427.72;4854134;29;20117;-63
2023/01/14 06:59:40;;;;;;;23.42;11.65;;;;;;;17.37;31.13;99419.38;4856387;29;20048;-64
2023/01/14 07:02:35;;;;;;;32.63;14.85;;;;;;;17.34;28.44;99409.91;4835406;29;20060;-61
2023/01/14 07:05:10;;;;;;;27.33;14.60;;;;;;;17.16;28.75;99401.00;4860167;29;20061;-61
2023/01/14 07:08:05;;;;;;;37.65;14.50;;;;;;;17.35;29.80;99402.69;4871556;29;20059;-63
2023/01/14 07:10:40;;;;;;;33.13;15.20;;;;;;;17.49;29.25;99393.50;4859875;29;20376;-60
2023/01/14 07:13:29;;;;;;;31.75;14.95;;;;;;;17.27;29.23;99389.56;4871302;29;20049;-62
2023/01/14 07:16:11;;;;;;;30.10;16.05;;;;;;;17.13;28.75;99385.38;4858214;29;20049;-63
2023/01/14 07:19:06;;;;;;;35.53;16.25;;;;;;;17.20;29.08;99386.97;4821541;29;20930;-64
2023/01/14 07:21:41;;;;;;;25.23;14.77;;;;;;;17.23;30.54;99389.19;4862033;29;20091;-63
2023/01/14 07:24:30;;;;;;;35.80;15.45;;;;;;;17.11;29.01;99382.09;4870862;29;20063;-62
2023/01/14 07:27:13;;;;;;;25.58;15.40;;;;;;;17.51;29.72;99376.19;4861742;29;20073;-63
2023/01/14 07:30:03;;;;;;;34.30;14.98;;;;;;;17.35;29.67;99374.06;4840072;29;20149;-63
2023/01/14 07:32:48;;;;;;;33.28;16.02;;;;;;;17.24;29.52;99363.25;4862637;29;20152;-64
2023/01/14 07:35:37;;;;;;;35.28;18.40;;;;;;;17.36;29.05;99364.97;4860211;29;20423;-62
2023/01/14 07:38:20;;;;;;;29.52;15.23;;;;;;;17.33;28.71;99359.25;4855877;29;20537;-62
2023/01/14 07:41:22;;;;;;;26.45;16.08;;;;;;;17.50;32.21;99349.63;4860492;29;20152;-62
2023/01/14 07:43:57;;;;;;;32.23;16.00;;;;;;;17.44;32.10;99340.59;4857351;29;20571;-61
2023/01/14 07:46:46;;;;;;;32.33;18.10;;;;;;;17.51;29.01;99351.25;4861666;29;20063;-60
2023/01/14 07:49:29;;;;;;;30.88;17.80;;;;;;;17.56;31.16;99343.38;4859724;29;20197;-61
2023/01/14 07:52:18;;;;;;;40.53;19.25;;;;;;;17.51;29.98;99340.53;4859990;29;20140;-61
2023/01/14 07:55:00;;;;;;;41.55;19.95;;;;;;;17.46;31.79;99321.63;4856261;29;20061;-61
2023/01/14 07:57:49;;;;;;;41.38;20.08;;;;;;;17.46;31.10;99325.13;4850732;29;20045;-62
2023/01/14 08:00:32;;;;;;;45.70;19.92;;;;;;;17.25;31.30;99316.72;4848590;29;20045;-62
2023/01/14 08:03:22;;;;;;;34.78;17.27;;;;;;;17.14;29.78;99318.22;4850802;29;20633;-61
2023/01/14 08:06:11;;;;;;;38.35;16.50;;;;;;;17.02;29.77;99320.00;4861339;29;20059;-59
2023/01/14 08:09:02;;;;;;;25.23;13.85;;;;;;;17.03;28.97;99310.94;4862222;29;20211;-61
2023/01/14 08:11:44;;;;;;;22.52;11.80;;;;;;;17.03;27.23;99309.06;4859427;29;20550;-59
2023/01/14 08:14:33;;;;;;;23.75;10.65;;;;;;;17.21;28.93;99319.00;4849295;29;20125;-61
2023/01/14 08:17:15;;;;;;;22.98;9.18;;;;;;;17.38;26.75;99313.91;4844272;29;20061;-61
2023/01/14 08:20:05;;;;;;;19.23;8.95;;;;;;;17.20;26.89;99312.00;4861186;29;20061;-62
2023/01/14 08:22:48;;;;;;;21.83;9.18;;;;;;;17.30;28.10;99300.81;4865227;29;20057;-63
2023/01/14 08:25:43;;;;;;;23.35;8.80;;;;;;;17.24;27.63;99305.19;4854324;29;20542;-61
2023/01/14 08:28:20;;;;;;;19.50;8.57;;;;;;;17.22;26.80;99295.72;4854150;29;20049;-62
2023/01/14 08:31:22;;;;;;;;;;;;;;;17.26;28.17;99288.91;4851161;29;20053;-66
2023/01/14 08:33:59;;;;;;;18.55;8.73;;;;;;;17.46;27.54;99300.22;4837529;29;20027;-61
2023/01/14 08:36:48;;;;;;;26.48;9.55;;;;;;;17.16;27.14;99300.09;4850861;29;20060;-63
2023/01/14 08:39:30;;;;;;;26.58;9.13;;;;;;;17.27;28.74;99291.34;4854365;29;20053;-63
2023/01/14 08:42:19;;;;;;;24.02;9.45;;;;;;;17.27;27.85;99287.84;4864569;29;20137;-65
2023/01/14 08:45:08;;;;;;;17.45;8.93;;;;;;;17.46;28.24;99278.78;4853495;29;20439;-64
2023/01/14 08:47:50;;;;;;;18.70;8.25;;;;;;;17.17;27.51;99268.81;4863722;29;20623;-64
2023/01/14 08:50:39;;;;;;;25.40;8.00;;;;;;;17.19;28.22;99280.09;4861072;29;20064;-67
2023/01/14 08:53:21;;;;;;;25.63;8.23;;;;;;;17.18;29.08;99278.44;4852377;29;20125;-63
2023/01/14 08:56:15;;;;;;;13.65;8.02;;;;;;;17.16;31.05;99272.53;4841172;29;20075;-64
2023/01/14 08:58:58;;;;;;;22.45;8.40;;;;;;;16.92;29.18;99277.66;4864470;29;20049;-65
2023/01/14 09:01:47;;;;;;;18.58;7.72;;;;;;;16.99;29.78;99273.06;4850888;29;20545;-63
2023/01/14 09:04:34;;;;;;;18.38;9.02;;;;;;;16.89;30.11;99269.25;4852998;29;20128;-62
2023/01/14 09:20:04;;;;;;;15.45;7.95;;;;;;;16.68;30.30;99257.09;4849543;29;20120;-66
2023/01/14 09:22:46;;;;;;;18.35;8.60;;;;;;;16.62;31.50;99263.31;4836449;29;20521;-64
2023/01/14 09:25:35;;;;;;;16.48;8.38;;;;;;;16.51;29.86;99274.66;4835704;29;20149;-64
2023/01/14 09:28:17;;;;;;;16.88;7.88;;;;;;;16.54;30.14;99260.88;4837509;29;20053;-64
2023/01/14 09:31:06;;;;;;;19.95;8.02;;;;;;;16.60;31.47;99260.84;4856657;29;20148;-65
2023/01/14 09:33:48;;;;;;;15.48;7.88;;;;;;;16.36;32.13;99258.94;4854725;29;20056;-63
2023/01/14 09:36:37;;;;;;;18.27;9.63;;;;;;;16.33;32.51;99256.69;4853416;29;20081;-63
2023/01/14 09:39:20;;;;;;;16.65;7.45;;;;;;;16.31;31.45;99247.25;4860652;29;20433;-64
2023/01/14 09:42:18;;;;;;;22.35;8.18;;;;;;;16.19;32.98;99244.47;4870912;29;20061;-66
2023/01/14 09:45:12;;;;;;;13.10;7.50;;;;;;;16.28;33.06;99250.38;4861370;29;20050;-64
2023/01/14 09:48:04;;;;;;;13.70;7.53;;;;;;;16.30;33.21;99245.59;4857960;29;20112;-63
2023/01/14 09:51:13;;;;;;;15.88;7.63;;;;;;;16.29;31.71;99250.13;4842849;29;20044;-62
2023/01/14 09:54:16;;;;;;;12.38;7.65;;;;;;;16.15;32.24;99248.59;4861537;29;20148;-62
2023/01/14 09:57:21;;;;;;;21.48;7.90;;;;;;;16.18;31.84;99246.31;4837347;29;20821;-62
2023/01/14 10:00:34;;;;;;;14.15;7.60;;;;;;;16.11;32.70;99248.19;4852530;29;20140;-63
2023/01/14 10:03:24;;;;;;;17.42;7.72;;;;;;;16.12;31.13;99249.81;4855563;29;20048;-64
2023/01/14 10:06:23;;;;;;;17.40;7.30;;;;;;;16.10;31.60;99249.25;4854181;29;20379;-62
2023/01/14 10:09:15;;;;;;;18.85;7.82;;;;;;;16.05;31.20;99243.72;4850365;29;20064;-63
2023/01/14 10:12:07;;;;;;;26.52;8.25;;;;;;;16.00;33.23;99251.56;4850095;29;20479;-61
2023/01/14 10:15:08;;;;;;;22.13;8.65;;;;;;;16.10;33.16;99246.56;4834935;29;20061;-63
2023/01/14 10:18:03;;;;;;;12.75;7.50;;;;;;;16.03;32.84;99248.44;4857501;29;20053;-63
2023/01/14 10:21:04;;;;;;;17.75;7.45;;;;;;;15.97;31.96;99240.47;4854886;29;20092;-65
2023/01/14 10:23:53;;;;;;;15.55;8.00;;;;;;;15.92;33.22;99241.13;4856367;29;20052;-62
2023/01/14 10:26:35;;;;;;;14.38;7.70;;;;;;;16.08;33.43;99237.94;4853320;29;20651;-67
2023/01/14 10:29:32;;;;;;;16.65;7.65;;;;;;;16.00;31.24;99234.69;4855821;29;20057;-66
2023/01/14 10:32:16;;;;;;;17.77;7.22;;;;;;;15.82;31.32;99238.06;4855837;29;20113;-64
2023/01/14 10:35:05;;;;;;;17.23;7.68;;;;;;;15.82;32.46;99237.25;4865606;29;20471;-62
2023/01/14 10:37:47;;;;;;;19.55;8.60;;;;;;;15.85;33.74;99236.81;4844796;29;20061;-62
2023/01/14 10:40:43;;;;;;;16.85;8.00;;;;;;;15.74;34.74;99230.31;4858660;29;20519;-64
2023/01/14 10:43:45;;;;;;;18.45;7.95;;;;;;;15.81;34.32;99231.09;4859704;29;20053;-65
2023/01/14 10:46:51;;;;;;;28.70;8.38;;;;;;;15.59;33.97;99227.06;4860839;29;20053;-62
2023/01/14 10:49:58;;;;;;;21.70;8.32;;;;;;;15.62;34.04;99238.16;4864489;29;20080;-64
2023/01/14 10:52:47;;;;;;;23.60;8.68;;;;;;;15.65;34.39;99235.06;4852633;29;20061;-60
2023/01/14 10:55:30;;;;;;;31.52;9.68;;;;;;;15.54;34.26;99232.22;4833921;29;20053;-66
2023/01/14 10:58:28;;;;;;;30.90;8.70;;;;;;;15.47;35.70;99228.75;4854735;29;20052;-63
2023/01/14 11:01:11;;;;;;;20.23;7.65;;;;;;;15.31;35.12;99223.88;4856180;29;20057;-60
2023/01/14 11:04:00;;;;;;;17.85;8.75;;;;;;;15.36;35.03;99221.38;4848566;29;20046;-60
2023/01/14 11:06:42;;;;;;;21.95;9.07;;;;;;;15.28;36.35;99225.94;4850618;29;20540;-60
2023/01/14 11:09:35;;;;;;;15.85;8.40;;;;;;;15.26;34.79;99224.50;4837313;29;20320;-58
2023/01/14 11:12:29;;;;;;;18.55;7.97;;;;;;;15.40;34.41;99227.97;4862861;29;20057;-59
2023/01/14 11:15:45;;;;;;;17.42;8.70;;;;;;;15.26;35.46;99227.19;4851501;29;20056;-59
2023/01/14 11:18:33;;;;;;;20.88;8.63;;;;;;;15.20;34.18;99226.16;4860774;29;20063;-54
2023/01/14 11:21:26;;;;;;;21.02;7.82;;;;;;;15.12;34.64;99226.38;4858562;29;20061;-56
2023/01/14 11:24:29;;;;;;;17.85;8.70;;;;;;;15.03;35.52;99222.31;4852033;29;20121;-58
2023/01/14 11:27:31;;;;;;;21.10;7.97;;;;;;;14.94;34.60;99223.53;4834544;29;20061;-56
2023/01/14 11:30:21;;;;;;;17.58;8.55;;;;;;;14.87;35.72;99217.38;4831617;29;20725;-57
2023/01/14 11:33:11;;;;;;;15.38;7.85;;;;;;;14.89;35.27;99211.84;4850101;29;20049;-61
2023/01/14 11:35:57;;;;;;;18.85;7.75;;;;;;;14.83;36.60;99216.16;4850150;29;20061;-61
2023/01/14 11:38:53;;;;;;;19.47;8.27;;;;;;;14.80;36.09;99216.59;4846937;29;20153;-63
2023/01/14 11:41:42;;;;;;;21.27;7.85;;;;;;;14.78;36.30;99208.78;4853243;29;20285;-61
2023/01/14 11:44:31;;;;;;;18.40;6.57;;;;;;;14.76;36.46;99205.53;4848186;29;20079;-62
2023/01/14 11:47:19;;;;;;;14.18;7.78;;;;;;;14.68;36.59;99205.75;4855576;29;20125;-56
2023/01/14 11:50:19;;;;;;;22.38;8.18;;;;;;;14.57;36.58;99206.34;4849415;29;20121;-63
2023/01/14 11:53:16;;;;;;;19.23;8.17;;;;;;;14.66;37.86;99202.44;4837609;29;20747;-64
2023/01/14 11:56:05;;;;;;;14.18;7.53;;;;;;;14.51;37.90;99209.03;4853166;29;20060;-62
2023/01/14 11:58:54;;;;;;;13.98;7.60;;;;;;;14.44;39.42;99208.19;4851575;29;20101;-65
2023/01/14 12:01:45;;;;;;;20.20;8.45;;;;;;;14.49;40.32;99208.41;4853073;29;20465;-64
2023/01/14 12:04:51;;;;;;;21.73;8.27;;;;;;;14.36;41.40;99210.03;4851309;29;20045;-64
2023/01/14 12:07:43;;;;;;;24.05;8.55;;;;;;;14.35;40.84;99211.06;4846737;29;20148;-63
2023/01/14 12:10:51;;;;;;;18.27;9.05;;;;;;;14.09;40.78;99211.00;4850016;29;20057;-61
2023/01/14 12:17:03;;;;;;;20.40;8.40;;;;;;;13.99;40.07;99215.88;4855595;29;20053;-60
2023/01/14 12:20:20;;;;;;;19.02;8.27;;;;;;;13.84;39.66;99217.91;4833685;29;20140;-63
2023/01/14 12:23:09;;;;;;;14.07;7.90;;;;;;;13.84;42.31;99228.56;4847668;29;20073;-59
2023/01/14 12:26:00;;;;;;;23.02;9.07;;;;;;;13.86;42.48;99214.00;4869040;29;20068;-56
2023/01/14 12:28:49;;;;;;;19.13;9.18;;;;;;;13.79;42.59;99220.34;4515101;29;10000007;-54
2023/01/14 12:32:09;;;;;;;27.98;9.85;;;;;;;13.86;44.76;99218.50;4835372;29;20073;-61
2023/01/14 12:34:59;;;;;;;30.17;10.38;;;;;;;13.74;43.87;99215.63;4860079;29;20072;-58
2023/01/14 12:38:02;;;;;;;21.37;9.57;;;;;;;13.70;43.61;99218.88;4529549;29;10000190;-61
2023/01/14 12:46:57;;;;;;;26.48;11.40;;;;;;;13.61;44.49;99225.41;4871459;29;20059;-57
2023/01/14 12:49:47;;;;;;;24.98;10.68;;;;;;;13.41;46.14;99230.63;4833315;29;20122;-54
2023/01/14 12:52:39;;;;;;;27.52;10.60;;;;;;;13.48;46.78;99220.84;4829138;29;20065;-54
2023/01/14 12:55:38;;;;;;;30.80;10.77;;;;;;;13.55;47.23;99221.69;4848155;29;20141;-60
2023/01/14 12:58:32;;;;;;;33.47;12.75;;;;;;;13.40;46.11;99224.50;4851800;29;20063;-55
2023/01/14 13:01:18;;;;;;;34.00;12.63;;;;;;;13.27;48.51;99236.91;4851340;29;20413;-58
2023/01/14 13:04:21;;;;;;;30.77;13.40;;;;;;;13.04;48.07;99243.31;4853041;29;20049;-59
2023/01/14 13:07:10;;;;;;;35.80;14.95;;;;;;;13.10;48.91;99247.00;4870516;29;20048;-59
2023/01/14 13:10:04;;;;;;;25.02;12.70;;;;;;;13.04;49.48;99245.97;4870162;29;20065;-60
2023/01/14 13:12:53;;;;;;;30.73;13.23;;;;;;;12.93;49.90;99248.31;4869931;29;20049;-62
2023/01/14 13:15:42;;;;;;;29.77;14.00;;;;;;;12.79;49.74;99243.94;4831942;29;20161;-59
2023/01/14 13:19:03;;;;;;;28.65;14.82;;;;;;;12.61;51.03;99245.22;4841069;29;20160;-60
2023/01/14 13:22:09;;;;;;;34.70;14.55;;;;;;;12.78;49.99;99251.09;4866481;29;20057;-61
2023/01/14 13:24:52;;;;;;;27.55;14.40;;;;;;;12.58;51.37;99247.44;4853781;29;20053;-60
2023/01/14 13:27:43;;;;;;;28.95;14.57;;;;;;;12.67;51.37;99254.25;4848720;29;20054;-60
2023/01/14 13:30:32;;;;;;;32.55;15.10;;;;;;;12.57;52.08;99246.63;4850449;29;20068;-59
2023/01/14 13:33:39;;;;;;;35.50;16.48;;;;;;;12.41;51.89;99243.41;4846167;29;20064;-62
2023/01/14 13:36:18;;;;;;;28.77;16.33;;;;;;;12.41;52.86;99236.28;4850204;29;20058;-62
2023/01/14 13:39:14;;;;;;;41.15;16.83;;;;;;;12.45;53.92;99247.31;4844334;29;20052;-61
2023/01/14 13:42:16;;;;;;;39.20;16.73;;;;;;;12.34;52.98;99245.19;4860512;29;20077;-60
2023/01/14 13:45:02;;;;;;;42.65;17.52;;;;;;;12.14;55.31;99250.31;4848372;29;20063;-62
2023/01/14 13:47:51;;;;;;;36.47;17.20;;;;;;;12.08;54.88;99243.91;4855670;29;20117;-60
2023/01/14 13:50:40;;;;;;;44.35;17.08;;;;;;;12.29;54.11;99255.56;4859640;29;20049;-61